Fredericksburg, Virginia
Current Conditions -  °F | °C
As of 7:35 PM on Saturday 20 Dec 2014 (Local Time) from KEZF Reporting Station
Overcast Overcast  
Wind Chill:   Ceiling: 7500
Heat Index:   Visibility: 10mi
Dew Point: -3°   Wind: 0mph
Humidity: 70%   Direction: NA
Pressure: 30.29"   Gusts: NA
Location:  38.3°N, 77.46°W
Report Text: KEZF 210035Z AUTO 00000KT 10SM BKN075 OVC100 02/M03 A3029 RMK AO2 T00191031
Loading
Personal Weather Stations






























Interactive Weather Map New forecast layout! Learn more

10-Day Weather Forecast

Advertisements
Track Severe Weather on mobile